Station Historical Data
Daily Summary for May 15, 2017 Units:  English    Metric   Both
« Previous Day
Next Day »
Daily Weekly Monthly Yearly Custom
  High: Low: Average:
Temperature: 63.2 °F 42.2 °F 53.1 °F
Dew Point: 45.5 °F 33.1 °F 39.2 °F
Humidity: 76 % 39 % 61 %
Wind Speed: 12.0 mph 0.0 mph 2.2 mph
Wind Gust: 15.0 mph - -
Wind:- - SW
Pressure: 29.95 in 29.84 in -
Precipitation: 0.00 in    
Historical Graphs
 
 
Tabular Data for May 15, 2017
Time Temperature Dew Point Pressure Wind Wind Speed Wind Gust Humidity Rainfall Rate (Hourly) solar
00:04 46.8 °F 38.3 °F 29.90 in Calm   6.0 mph 72 % 0.00 in 0.00 W/m2
00:09 46.8 °F 38.3 °F 29.91 in Calm   5.0 mph 72 % 0.00 in 0.00 W/m2
00:14 46.7 °F 37.8 °F 29.90 in Calm   2.0 mph 71 % 0.00 in 0.00 W/m2
00:19 46.7 °F 37.5 °F 29.90 in Calm   5.0 mph 70 % 0.00 in 0.00 W/m2
00:24 46.6 °F 37.3 °F 29.90 in Calm     70 % 0.00 in 0.00 W/m2
00:29 46.6 °F 37.3 °F 29.90 in Calm     70 % 0.00 in 0.00 W/m2
00:34 46.5 °F 37.3 °F 29.90 in Calm   5.0 mph 70 % 0.00 in 0.00 W/m2
00:39 46.5 °F 37.3 °F 29.90 in Calm   4.0 mph 70 % 0.00 in 0.00 W/m2
00:44 46.4 °F 37.2 °F 29.90 in East 2.0 mph 4.0 mph 70 % 0.00 in 0.00 W/m2
00:49 46.4 °F 36.8 °F 29.90 in East 2.0 mph 5.0 mph 69 % 0.00 in 0.00 W/m2
00:54 46.3 °F 36.7 °F 29.90 in Calm   5.0 mph 69 % 0.00 in 0.00 W/m2
00:59 46.3 °F 36.7 °F 29.90 in East 5.0 mph 5.0 mph 69 % 0.00 in 0.00 W/m2
01:04 46.2 °F 36.2 °F 29.89 in East 1.0 mph 6.0 mph 68 % 0.00 in 0.00 W/m2
01:09 46.1 °F 36.5 °F 29.89 in Calm     69 % 0.00 in 0.00 W/m2
01:14 46.0 °F 36.0 °F 29.89 in Calm     68 % 0.00 in 0.00 W/m2
01:19 45.9 °F 36.3 °F 29.89 in Calm     69 % 0.00 in 0.00 W/m2
01:24 45.7 °F 36.1 °F 29.89 in Calm     69 % 0.00 in 0.00 W/m2
01:29 45.4 °F 35.8 °F 29.89 in Calm   1.0 mph 69 % 0.00 in 0.00 W/m2
01:34 45.3 °F 36.5 °F 29.89 in Calm     71 % 0.00 in 0.00 W/m2
01:39 45.2 °F 36.7 °F 29.89 in Calm   1.0 mph 72 % 0.00 in 0.00 W/m2
01:44 45.1 °F 36.6 °F 29.88 in Calm     72 % 0.00 in 0.00 W/m2
01:49 45.0 °F 36.9 °F 29.88 in Calm     73 % 0.00 in 0.00 W/m2
01:54 45.0 °F 37.2 °F 29.88 in Calm     74 % 0.00 in 0.00 W/m2
01:59 44.9 °F 37.1 °F 29.88 in Calm     74 % 0.00 in 0.00 W/m2
02:04 44.9 °F 37.1 °F 29.88 in Calm     74 % 0.00 in 0.00 W/m2
02:09 44.8 °F 37.0 °F 29.88 in Calm     74 % 0.00 in 0.00 W/m2
02:14 44.8 °F 37.4 °F 29.88 in Calm     75 % 0.00 in 0.00 W/m2
02:19 44.7 °F 37.3 °F 29.88 in Calm     75 % 0.00 in 0.00 W/m2
02:24 44.6 °F 37.2 °F 29.87 in Calm     75 % 0.00 in 0.00 W/m2
02:29 44.6 °F 37.2 °F 29.87 in Calm     75 % 0.00 in 0.00 W/m2
02:34 44.5 °F 37.1 °F 29.88 in Calm     75 % 0.00 in 0.00 W/m2
02:39 44.4 °F 36.7 °F 29.88 in East 3.0 mph 4.0 mph 74 % 0.00 in 0.00 W/m2
02:44 44.3 °F 36.5 °F 29.88 in East 2.0 mph 4.0 mph 74 % 0.00 in 0.00 W/m2
02:49 44.2 °F 36.5 °F 29.87 in Calm   3.0 mph 74 % 0.00 in 0.00 W/m2
02:54 44.0 °F 35.9 °F 29.87 in Calm   4.0 mph 73 % 0.00 in 0.00 W/m2
02:59 43.9 °F 35.8 °F 29.87 in Calm   3.0 mph 73 % 0.00 in 0.00 W/m2
03:04 43.7 °F 35.6 °F 29.87 in Calm     73 % 0.00 in 0.00 W/m2
03:09 43.6 °F 35.5 °F 29.87 in Calm     73 % 0.00 in 0.00 W/m2
03:14 43.5 °F 35.4 °F 29.87 in Calm     73 % 0.00 in 0.00 W/m2
03:16 43.5 °F 35.4 °F 29.87 in Calm     73 % 0.00 in 0.00 W/m2
03:21 43.5 °F 35.4 °F 29.87 in Calm     73 % 0.00 in 0.00 W/m2
03:26 43.4 °F 35.3 °F 29.87 in ENE 3.0 mph 4.0 mph 73 % 0.00 in 0.00 W/m2
03:31 43.4 °F 35.3 °F 29.87 in Calm     73 % 0.00 in 0.00 W/m2
03:36 43.3 °F 35.6 °F 29.87 in Calm     74 % 0.00 in 0.00 W/m2
03:41 43.3 °F 35.2 °F 29.87 in Calm     73 % 0.00 in 0.00 W/m2
03:46 43.3 °F 34.9 °F 29.86 in ENE 1.0 mph 4.0 mph 72 % 0.00 in 0.00 W/m2
03:51 43.3 °F 34.5 °F 29.87 in ENE 4.0 mph 4.0 mph 71 % 0.00 in 0.00 W/m2
03:56 43.3 °F 34.2 °F 29.87 in Calm     70 % 0.00 in 0.00 W/m2
04:01 43.3 °F 34.2 °F 29.86 in Calm     70 % 0.00 in 0.00 W/m2
04:06 43.3 °F 34.5 °F 29.86 in Calm     71 % 0.00 in 0.00 W/m2
04:11 43.3 °F 34.5 °F 29.86 in Calm     71 % 0.00 in 0.00 W/m2
04:16 43.2 °F 34.5 °F 29.86 in ENE 3.0 mph 3.0 mph 71 % 0.00 in 0.00 W/m2
04:21 43.2 °F 34.1 °F 29.86 in Calm     70 % 0.00 in 0.00 W/m2
04:26 43.2 °F 34.1 °F 29.86 in Calm     70 % 0.00 in 0.00 W/m2
04:31 43.2 °F 34.1 °F 29.86 in Calm     70 % 0.00 in 0.00 W/m2
04:36 43.2 °F 34.1 °F 29.86 in Calm     70 % 0.00 in 0.00 W/m2
04:42 43.1 °F 34.0 °F 29.86 in Calm     70 % 0.00 in 0.00 W/m2
04:47 43.0 °F 33.9 °F 29.86 in Calm     70 % 0.00 in 0.00 W/m2
04:52 42.9 °F 33.4 °F 29.86 in ENE 3.0 mph 3.0 mph 69 % 0.00 in 0.00 W/m2
04:57 42.9 °F 33.8 °F 29.86 in Calm     70 % 0.00 in 0.00 W/m2
05:02 42.8 °F 33.7 °F 29.86 in Calm     70 % 0.00 in 0.00 W/m2
05:07 42.7 °F 33.6 °F 29.85 in Calm     70 % 0.00 in 0.00 W/m2
05:12 42.7 °F 33.6 °F 29.85 in Calm     70 % 0.00 in 0.00 W/m2
05:17 42.6 °F 33.5 °F 29.85 in Calm     70 % 0.00 in 0.00 W/m2
05:22 42.5 °F 33.8 °F 29.85 in Calm     71 % 0.00 in 0.00 W/m2
05:27 42.4 °F 33.7 °F 29.85 in Calm     71 % 0.00 in 0.00 W/m2
05:32 42.3 °F 33.2 °F 29.85 in Calm     70 % 0.00 in 0.00 W/m2
05:37 42.2 °F 33.1 °F 29.85 in Calm     70 % 0.00 in 0.00 W/m2
05:42 42.2 °F 33.1 °F 29.84 in Calm     70 % 0.00 in 0.00 W/m2
05:47 42.3 °F 33.2 °F 29.85 in Calm     70 % 0.00 in 0.00 W/m2
05:52 42.3 °F 33.2 °F 29.85 in Calm     70 % 0.00 in 5.00 W/m2
05:57 42.3 °F 33.2 °F 29.85 in Calm     70 % 0.00 in 9.00 W/m2
06:02 42.3 °F 33.2 °F 29.85 in Calm     70 % 0.00 in 12.00 W/m2
06:07 42.2 °F 33.1 °F 29.85 in Calm     70 % 0.00 in 14.00 W/m2
06:12 42.2 °F 33.1 °F 29.85 in Calm     70 % 0.00 in 16.00 W/m2
06:17 42.2 °F 33.1 °F 29.84 in Calm     70 % 0.00 in 19.00 W/m2
06:22 42.3 °F 33.2 °F 29.84 in Calm     70 % 0.00 in 28.00 W/m2
06:27 42.2 °F 33.1 °F 29.85 in Calm   5.0 mph 70 % 0.00 in 39.00 W/m2
06:32 42.3 °F 33.6 °F 29.84 in ENE 3.0 mph 4.0 mph 71 % 0.00 in 51.00 W/m2
06:37 42.3 °F 33.6 °F 29.85 in ENE 2.0 mph 3.0 mph 71 % 0.00 in 65.00 W/m2
06:42 42.4 °F 33.7 °F 29.85 in Calm   3.0 mph 71 % 0.00 in 79.00 W/m2
06:47 42.4 °F 33.7 °F 29.85 in Calm     71 % 0.00 in 93.00 W/m2
06:52 42.5 °F 33.8 °F 29.85 in Calm     71 % 0.00 in 111.00 W/m2
06:57 42.5 °F 33.8 °F 29.85 in Calm     71 % 0.00 in 130.00 W/m2
07:02 42.7 °F 34.0 °F 29.85 in Calm     71 % 0.00 in 148.00 W/m2
07:07 42.8 °F 34.1 °F 29.85 in Calm     71 % 0.00 in 169.00 W/m2
07:12 42.9 °F 34.5 °F 29.85 in Calm   3.0 mph 72 % 0.00 in 190.00 W/m2
07:17 43.0 °F 34.6 °F 29.85 in Calm     72 % 0.00 in 211.00 W/m2
07:22 43.1 °F 35.0 °F 29.85 in Calm     73 % 0.00 in 232.00 W/m2
07:27 43.2 °F 35.1 °F 29.85 in Calm     73 % 0.00 in 250.00 W/m2
07:32 43.3 °F 35.2 °F 29.85 in Calm     73 % 0.00 in 269.00 W/m2
07:33 43.4 °F 35.3 °F 29.85 in Calm     73 % 0.00 in 272.00 W/m2
07:38 43.5 °F 35.8 °F 29.85 in Calm     74 % 0.00 in 292.00 W/m2
07:43 43.6 °F 35.9 °F 29.84 in Calm     74 % 0.00 in 309.00 W/m2
07:48 43.8 °F 36.1 °F 29.84 in Calm     74 % 0.00 in 327.00 W/m2
07:53 44.0 °F 36.6 °F 29.84 in Calm     75 % 0.00 in 345.00 W/m2
07:58 44.1 °F 36.7 °F 29.84 in Calm     75 % 0.00 in 364.00 W/m2
08:03 44.3 °F 36.9 °F 29.84 in Calm     75 % 0.00 in 380.00 W/m2
08:08 44.5 °F 37.4 °F 29.84 in Calm     76 % 0.00 in 394.00 W/m2
08:13 44.7 °F 37.6 °F 29.84 in Calm     76 % 0.00 in 411.00 W/m2
08:18 45.0 °F 37.6 °F 29.84 in Calm     75 % 0.00 in 427.00 W/m2
08:23 45.2 °F 38.1 °F 29.84 in Calm     76 % 0.00 in 445.00 W/m2
08:28 45.5 °F 38.0 °F 29.84 in Calm     75 % 0.00 in 462.00 W/m2
08:33 45.9 °F 36.0 °F 29.85 in Calm     68 % 0.00 in 480.00 W/m2
08:39 46.5 °F 36.2 °F 29.84 in Calm     67 % 0.00 in 496.00 W/m2
08:44 47.3 °F 36.9 °F 29.85 in Calm     67 % 0.00 in 512.00 W/m2
08:49 47.9 °F 37.5 °F 29.85 in Calm     67 % 0.00 in 527.00 W/m2
08:54 48.5 °F 38.1 °F 29.85 in Calm     67 % 0.00 in 541.00 W/m2
08:59 49.1 °F 36.7 °F 29.85 in Calm   4.0 mph 62 % 0.00 in 557.00 W/m2
09:04 49.8 °F 38.1 °F 29.85 in Calm   4.0 mph 64 % 0.00 in 573.00 W/m2
09:09 50.3 °F 38.6 °F 29.85 in West 2.0 mph 4.0 mph 64 % 0.00 in 587.00 W/m2
09:14 50.8 °F 39.5 °F 29.85 in NW 3.0 mph 4.0 mph 65 % 0.00 in 601.00 W/m2
09:19 51.2 °F 39.8 °F 29.85 in NW 2.0 mph 2.0 mph 65 % 0.00 in 617.00 W/m2
09:24 51.5 °F 38.5 °F 29.85 in NW 2.0 mph 4.0 mph 61 % 0.00 in 633.00 W/m2
09:29 51.8 °F 38.8 °F 29.85 in Calm   4.0 mph 61 % 0.00 in 647.00 W/m2
09:34 52.0 °F 38.6 °F 29.85 in Calm   5.0 mph 60 % 0.00 in 663.00 W/m2
09:39 52.1 °F 38.2 °F 29.85 in Calm   3.0 mph 59 % 0.00 in 671.00 W/m2
09:44 52.2 °F 38.8 °F 29.85 in Calm   4.0 mph 60 % 0.00 in 687.00 W/m2
09:49 52.3 °F 37.5 °F 29.85 in WNW 5.0 mph 6.0 mph 57 % 0.00 in 700.00 W/m2
09:54 52.4 °F 37.6 °F 29.86 in WNW 1.0 mph 6.0 mph 57 % 0.00 in 714.00 W/m2
09:59 52.6 °F 37.8 °F 29.86 in Calm   7.0 mph 57 % 0.00 in 726.00 W/m2
10:04 52.8 °F 39.3 °F 29.86 in WNW 3.0 mph 6.0 mph 60 % 0.00 in 738.00 W/m2
10:09 53.0 °F 39.5 °F 29.86 in NW 3.0 mph 9.0 mph 60 % 0.00 in 752.00 W/m2
10:14 53.1 °F 39.2 °F 29.86 in NW 3.0 mph 8.0 mph 59 % 0.00 in 763.00 W/m2
10:19 53.3 °F 39.8 °F 29.86 in NW 1.0 mph 11.0 mph 60 % 0.00 in 775.00 W/m2
10:24 53.4 °F 40.3 °F 29.86 in Calm   5.0 mph 61 % 0.00 in 784.00 W/m2
10:25 53.5 °F 40.4 °F 29.86 in WNW 1.0 mph 5.0 mph 61 % 0.00 in 784.00 W/m2
10:30 53.7 °F 41.0 °F 29.86 in NW 2.0 mph 6.0 mph 62 % 0.00 in 796.00 W/m2
10:35 54.0 °F 40.4 °F 29.86 in NW 5.0 mph 9.0 mph 60 % 0.00 in 807.00 W/m2
10:40 54.2 °F 41.1 °F 29.86 in West 8.0 mph 9.0 mph 61 % 0.00 in 817.00 W/m2
10:45 54.4 °F 41.2 °F 29.86 in West 4.0 mph 7.0 mph 61 % 0.00 in 828.00 W/m2
10:50 54.5 °F 40.5 °F 29.86 in Calm   9.0 mph 59 % 0.00 in 840.00 W/m2
10:55 54.6 °F 41.0 °F 29.86 in West 4.0 mph 7.0 mph 60 % 0.00 in 849.00 W/m2
11:00 54.8 °F 41.6 °F 29.86 in WSW 3.0 mph 8.0 mph 61 % 0.00 in 856.00 W/m2
11:05 55.0 °F 41.4 °F 29.86 in NNW 4.0 mph 9.0 mph 60 % 0.00 in 863.00 W/m2
11:10 55.4 °F 40.9 °F 29.86 in WNW 3.0 mph 9.0 mph 58 % 0.00 in 872.00 W/m2
11:15 55.7 °F 41.6 °F 29.86 in NW 2.0 mph 8.0 mph 59 % 0.00 in 879.00 W/m2
11:20 56.0 °F 40.5 °F 29.86 in NW 4.0 mph 7.0 mph 56 % 0.00 in 886.00 W/m2
11:25 56.2 °F 41.2 °F 29.86 in WNW 1.0 mph 8.0 mph 57 % 0.00 in 893.00 W/m2
11:30 56.5 °F 41.9 °F 29.86 in NW 1.0 mph 7.0 mph 58 % 0.00 in 902.00 W/m2
11:35 56.8 °F 42.2 °F 29.86 in WNW 4.0 mph 6.0 mph 58 % 0.00 in 911.00 W/m2
11:40 57.0 °F 42.4 °F 29.86 in SW 2.0 mph 9.0 mph 58 % 0.00 in 914.00 W/m2
11:45 57.4 °F 42.3 °F 29.86 in West 5.0 mph 9.0 mph 57 % 0.00 in 921.00 W/m2
11:50 57.8 °F 42.7 °F 29.86 in West 1.0 mph 6.0 mph 57 % 0.00 in 928.00 W/m2
11:56 58.2 °F 43.1 °F 29.86 in WSW 4.0 mph 7.0 mph 57 % 0.00 in 933.00 W/m2
12:01 58.6 °F 41.5 °F 29.86 in WSW 6.0 mph 8.0 mph 53 % 0.00 in 935.00 W/m2
12:06 59.0 °F 41.9 °F 29.87 in Calm   12.0 mph 53 % 0.00 in 940.00 W/m2
12:11 59.4 °F 41.3 °F 29.87 in West 1.0 mph 10.0 mph 51 % 0.00 in 944.00 W/m2
12:16 59.6 °F 42.5 °F 29.87 in WNW 4.0 mph 7.0 mph 53 % 0.00 in 946.00 W/m2
12:21 59.9 °F 42.7 °F 29.87 in SW 3.0 mph 8.0 mph 53 % 0.00 in 949.00 W/m2
12:26 60.3 °F 42.6 °F 29.87 in Calm   11.0 mph 52 % 0.00 in 951.00 W/m2
12:31 60.5 °F 41.8 °F 29.87 in WNW 8.0 mph 9.0 mph 50 % 0.00 in 956.00 W/m2
12:36 60.6 °F 42.4 °F 29.87 in Calm   10.0 mph 51 % 0.00 in 953.00 W/m2
12:41 60.5 °F 42.3 °F 29.87 in NW 3.0 mph 12.0 mph 51 % 0.00 in 956.00 W/m2
12:46 60.2 °F 42.0 °F 29.87 in NW 4.0 mph 10.0 mph 51 % 0.00 in 956.00 W/m2
12:51 60.3 °F 42.6 °F 29.87 in West 9.0 mph 10.0 mph 52 % 0.00 in 956.00 W/m2
12:56 60.5 °F 42.3 °F 29.87 in Calm   10.0 mph 51 % 0.00 in 960.00 W/m2
13:01 60.8 °F 43.6 °F 29.87 in West 6.0 mph 12.0 mph 53 % 0.00 in 958.00 W/m2
13:06 61.1 °F 41.8 °F 29.87 in Calm   8.0 mph 49 % 0.00 in 960.00 W/m2
13:11 61.2 °F 43.0 °F 29.87 in West 1.0 mph 7.0 mph 51 % 0.00 in 956.00 W/m2
13:16 61.3 °F 40.4 °F 29.87 in Calm   9.0 mph 46 % 0.00 in 951.00 W/m2
13:21 61.4 °F 43.1 °F 29.87 in West 3.0 mph 12.0 mph 51 % 0.00 in 949.00 W/m2
13:26 61.9 °F 43.1 °F 29.87 in WNW 4.0 mph 10.0 mph 50 % 0.00 in 953.00 W/m2
13:31 62.1 °F 42.7 °F 29.87 in West 5.0 mph 10.0 mph 49 % 0.00 in 947.00 W/m2
13:36 62.3 °F 43.4 °F 29.86 in SW 6.0 mph 9.0 mph 50 % 0.00 in 946.00 W/m2
13:41 62.5 °F 43.1 °F 29.86 in Calm   8.0 mph 49 % 0.00 in 940.00 W/m2
13:46 62.7 °F 44.3 °F 29.86 in West 3.0 mph 8.0 mph 51 % 0.00 in 935.00 W/m2
13:51 62.6 °F 42.1 °F 29.86 in Calm   11.0 mph 47 % 0.00 in 932.00 W/m2
13:56 62.5 °F 43.6 °F 29.86 in Calm   10.0 mph 50 % 0.00 in 923.00 W/m2
14:01 62.5 °F 43.6 °F 29.86 in Calm   13.0 mph 50 % 0.00 in 925.00 W/m2
14:06 62.6 °F 43.2 °F 29.86 in NW 4.0 mph 11.0 mph 49 % 0.00 in 939.00 W/m2
14:11 62.5 °F 42.6 °F 29.86 in Calm   12.0 mph 48 % 0.00 in 923.00 W/m2
14:16 62.3 °F 41.8 °F 29.86 in NW 1.0 mph 12.0 mph 47 % 0.00 in 911.00 W/m2
14:21 62.3 °F 42.4 °F 29.87 in West 4.0 mph 10.0 mph 48 % 0.00 in 914.00 W/m2
14:26 62.2 °F 42.3 °F 29.86 in WNW 8.0 mph 12.0 mph 48 % 0.00 in 900.00 W/m2
14:31 62.2 °F 41.7 °F 29.86 in SW 7.0 mph 9.0 mph 47 % 0.00 in 891.00 W/m2
14:36 62.3 °F 42.4 °F 29.86 in West 3.0 mph 11.0 mph 48 % 0.00 in 914.00 W/m2
14:41 62.5 °F 42.6 °F 29.86 in WSW 4.0 mph 13.0 mph 48 % 0.00 in 886.00 W/m2
14:46 62.7 °F 42.2 °F 29.86 in West 3.0 mph 8.0 mph 47 % 0.00 in 886.00 W/m2
14:51 62.7 °F 42.2 °F 29.86 in West 7.0 mph 12.0 mph 47 % 0.00 in 875.00 W/m2
14:56 62.8 °F 41.7 °F 29.86 in WNW 6.0 mph 10.0 mph 46 % 0.00 in 904.00 W/m2
15:01 63.0 °F 41.3 °F 29.86 in NW 5.0 mph 10.0 mph 45 % 0.00 in 875.00 W/m2
15:06 62.6 °F 39.2 °F 29.86 in West 5.0 mph 10.0 mph 42 % 0.00 in 860.00 W/m2
15:11 62.3 °F 38.9 °F 29.86 in West 2.0 mph 9.0 mph 42 % 0.00 in 837.00 W/m2
15:16 62.3 °F 40.7 °F 29.86 in SSW 6.0 mph 8.0 mph 45 % 0.00 in 900.00 W/m2
15:21 62.3 °F 40.1 °F 29.86 in Calm   10.0 mph 44 % 0.00 in 174.00 W/m2
15:26 62.2 °F 40.0 °F 29.86 in Calm   11.0 mph 44 % 0.00 in 643.00 W/m2
15:31 62.2 °F 41.2 °F 29.86 in NW 7.0 mph 15.0 mph 46 % 0.00 in 821.00 W/m2
15:36 62.2 °F 41.2 °F 29.86 in Calm   9.0 mph 46 % 0.00 in 779.00 W/m2
15:41 62.3 °F 40.7 °F 29.86 in Calm   10.0 mph 45 % 0.00 in 197.00 W/m2
15:46 62.2 °F 38.2 °F 29.86 in NNW 4.0 mph 10.0 mph 41 % 0.00 in 766.00 W/m2
15:51 62.2 °F 38.8 °F 29.86 in WNW 5.0 mph 9.0 mph 42 % 0.00 in 747.00 W/m2
15:56 62.3 °F 38.3 °F 29.86 in Calm   12.0 mph 41 % 0.00 in 751.00 W/m2
16:01 62.4 °F 39.0 °F 29.86 in NW 3.0 mph 7.0 mph 42 % 0.00 in 823.00 W/m2
16:06 62.6 °F 39.2 °F 29.86 in NW 5.0 mph 10.0 mph 42 % 0.00 in 902.00 W/m2
16:11 62.9 °F 38.9 °F 29.86 in West 6.0 mph 9.0 mph 41 % 0.00 in 352.00 W/m2
16:16 62.9 °F 38.9 °F 29.86 in West 4.0 mph 10.0 mph 41 % 0.00 in 320.00 W/m2
16:21 62.7 °F 38.7 °F 29.86 in Calm   11.0 mph 41 % 0.00 in 383.00 W/m2
16:26 62.5 °F 38.5 °F 29.86 in Calm   4.0 mph 41 % 0.00 in 489.00 W/m2
16:31 62.4 °F 39.6 °F 29.86 in WSW 6.0 mph 8.0 mph 43 % 0.00 in 842.00 W/m2
16:36 62.5 °F 39.7 °F 29.86 in Calm   8.0 mph 43 % 0.00 in 800.00 W/m2
16:41 62.7 °F 41.1 °F 29.86 in WSW 4.0 mph 10.0 mph 45 % 0.00 in 786.00 W/m2
16:46 63.0 °F 40.2 °F 29.86 in WSW 5.0 mph 9.0 mph 43 % 0.00 in 295.00 W/m2
16:51 63.1 °F 39.7 °F 29.86 in Calm   7.0 mph 42 % 0.00 in 264.00 W/m2
16:56 63.0 °F 39.6 °F 29.86 in WNW 4.0 mph 6.0 mph 42 % 0.00 in 512.00 W/m2
17:01 62.9 °F 39.5 °F 29.86 in WNW 2.0 mph 9.0 mph 42 % 0.00 in 204.00 W/m2
17:06 62.7 °F 39.9 °F 29.86 in Calm   4.0 mph 43 % 0.00 in 207.00 W/m2
17:11 62.5 °F 39.7 °F 29.87 in West 4.0 mph 5.0 mph 43 % 0.00 in 239.00 W/m2
17:16 62.4 °F 40.8 °F 29.87 in West 2.0 mph 2.0 mph 45 % 0.00 in 626.00 W/m2
17:21 62.3 °F 40.7 °F 29.87 in West 3.0 mph 4.0 mph 45 % 0.00 in 557.00 W/m2
17:26 62.4 °F 37.8 °F 29.87 in SW 6.0 mph 7.0 mph 40 % 0.00 in 541.00 W/m2
17:31 62.5 °F 38.5 °F 29.87 in WSW 2.0 mph 3.0 mph 41 % 0.00 in 517.00 W/m2
17:36 62.7 °F 37.4 °F 29.87 in SSW 3.0 mph 4.0 mph 39 % 0.00 in 538.00 W/m2
17:41 62.8 °F 38.1 °F 29.87 in SW 8.0 mph 8.0 mph 40 % 0.00 in 555.00 W/m2
17:46 62.9 °F 37.6 °F 29.87 in Calm     39 % 0.00 in 554.00 W/m2
17:51 62.9 °F 38.9 °F 29.87 in South 6.0 mph 6.0 mph 41 % 0.00 in 515.00 W/m2
17:56 63.0 °F 39.0 °F 29.87 in Calm     41 % 0.00 in 473.00 W/m2
18:01 63.1 °F 39.0 °F 29.87 in Calm     41 % 0.00 in 446.00 W/m2
18:06 63.1 °F 39.0 °F 29.88 in Calm     41 % 0.00 in 420.00 W/m2
18:11 63.2 °F 39.1 °F 29.88 in Calm   1.0 mph 41 % 0.00 in 234.00 W/m2
18:16 63.1 °F 38.4 °F 29.88 in WSW 3.0 mph 4.0 mph 40 % 0.00 in 348.00 W/m2
18:21 62.9 °F 40.1 °F 29.88 in SSW 1.0 mph 2.0 mph 43 % 0.00 in 281.00 W/m2
18:26 62.8 °F 39.4 °F 29.88 in SW 5.0 mph 5.0 mph 42 % 0.00 in 251.00 W/m2
18:31 62.7 °F 37.4 °F 29.88 in Calm   3.0 mph 39 % 0.00 in 243.00 W/m2
18:33 62.6 °F 38.0 °F 29.88 in Calm   5.0 mph 40 % 0.00 in 236.00 W/m2
18:38 62.4 °F 39.0 °F 29.88 in Calm   3.0 mph 42 % 0.00 in 221.00 W/m2
18:43 62.3 °F 37.7 °F 29.88 in SW 2.0 mph 5.0 mph 40 % 0.00 in 46.00 W/m2
18:48 62.2 °F 38.8 °F 29.89 in Calm   6.0 mph 42 % 0.00 in 42.00 W/m2
18:53 62.0 °F 37.4 °F 29.89 in Calm   1.0 mph 40 % 0.00 in 40.00 W/m2
18:58 61.8 °F 37.9 °F 29.89 in Calm   4.0 mph 41 % 0.00 in 42.00 W/m2
19:03 61.6 °F 37.7 °F 29.89 in Calm   5.0 mph 41 % 0.00 in 37.00 W/m2
19:08 61.4 °F 39.3 °F 29.89 in Calm   6.0 mph 44 % 0.00 in 69.00 W/m2
19:13 61.1 °F 39.0 °F 29.89 in Calm   3.0 mph 44 % 0.00 in 86.00 W/m2
19:18 60.8 °F 38.8 °F 29.89 in WSW 4.0 mph 4.0 mph 44 % 0.00 in 74.00 W/m2
19:23 60.4 °F 39.0 °F 29.89 in SW 3.0 mph 3.0 mph 45 % 0.00 in 62.00 W/m2
19:28 60.1 °F 38.7 °F 29.89 in Calm   6.0 mph 45 % 0.00 in 46.00 W/m2
19:33 59.8 °F 39.0 °F 29.89 in Calm     46 % 0.00 in 37.00 W/m2
19:38 59.5 °F 39.3 °F 29.89 in Calm     47 % 0.00 in 28.00 W/m2
19:43 59.2 °F 39.5 °F 29.89 in SW 5.0 mph 11.0 mph 48 % 0.00 in 25.00 W/m2
19:48 58.9 °F 38.7 °F 29.89 in SW 2.0 mph 7.0 mph 47 % 0.00 in 19.00 W/m2
19:53 58.7 °F 39.1 °F 29.90 in SW 3.0 mph 7.0 mph 48 % 0.00 in 14.00 W/m2
19:58 58.5 °F 39.9 °F 29.90 in Calm   8.0 mph 50 % 0.00 in 12.00 W/m2
20:03 58.3 °F 42.2 °F 29.90 in Calm   10.0 mph 55 % 0.00 in 7.00 W/m2
20:08 58.0 °F 42.4 °F 29.90 in Calm   7.0 mph 56 % 0.00 in 5.00 W/m2
20:13 57.9 °F 43.2 °F 29.90 in Calm   7.0 mph 58 % 0.00 in 0.00 W/m2
20:18 57.8 °F 44.0 °F 29.90 in Calm   5.0 mph 60 % 0.00 in 0.00 W/m2
20:23 57.6 °F 44.3 °F 29.91 in Calm   5.0 mph 61 % 0.00 in 0.00 W/m2
20:28 57.5 °F 45.0 °F 29.91 in SSW 9.0 mph 10.0 mph 63 % 0.00 in 0.00 W/m2
20:33 57.4 °F 44.9 °F 29.91 in South 4.0 mph 11.0 mph 63 % 0.00 in 0.00 W/m2
20:38 57.2 °F 45.2 °F 29.91 in South 5.0 mph 7.0 mph 64 % 0.00 in 0.00 W/m2
20:43 57.1 °F 45.5 °F 29.91 in South 7.0 mph 10.0 mph 65 % 0.00 in 0.00 W/m2
20:48 56.9 °F 45.3 °F 29.91 in South 12.0 mph 12.0 mph 65 % 0.00 in 0.00 W/m2
20:53 56.7 °F 45.5 °F 29.92 in South 4.0 mph 8.0 mph 66 % 0.00 in 0.00 W/m2
20:58 56.6 °F 45.4 °F 29.92 in South 3.0 mph 9.0 mph 66 % 0.00 in 0.00 W/m2
21:03 56.4 °F 45.2 °F 29.92 in South 8.0 mph 10.0 mph 66 % 0.00 in 0.00 W/m2
21:08 56.3 °F 45.5 °F 29.92 in South 11.0 mph 11.0 mph 67 % 0.00 in 0.00 W/m2
21:13 56.1 °F 45.3 °F 29.92 in SSE 4.0 mph 9.0 mph 67 % 0.00 in 0.00 W/m2
21:18 56.0 °F 45.2 °F 29.92 in SSE 8.0 mph 8.0 mph 67 % 0.00 in 0.00 W/m2
21:24 55.9 °F 45.1 °F 29.92 in SSE 8.0 mph 9.0 mph 67 % 0.00 in 0.00 W/m2
21:29 55.8 °F 45.0 °F 29.93 in SSE 6.0 mph 8.0 mph 67 % 0.00 in 0.00 W/m2
21:34 55.7 °F 44.9 °F 29.93 in SSE 7.0 mph 12.0 mph 67 % 0.00 in 0.00 W/m2
21:39 55.6 °F 45.2 °F 29.93 in SSE 6.0 mph 10.0 mph 68 % 0.00 in 0.00 W/m2
21:44 55.5 °F 45.1 °F 29.93 in SSE 4.0 mph 8.0 mph 68 % 0.00 in 0.00 W/m2
21:49 55.4 °F 45.0 °F 29.93 in SSE 2.0 mph 9.0 mph 68 % 0.00 in 0.00 W/m2
21:54 55.3 °F 44.9 °F 29.93 in SSE 8.0 mph 10.0 mph 68 % 0.00 in 0.00 W/m2
21:59 55.1 °F 45.1 °F 29.93 in SE 6.0 mph 13.0 mph 69 % 0.00 in 0.00 W/m2
22:04 55.0 °F 45.0 °F 29.94 in SSE 6.0 mph 11.0 mph 69 % 0.00 in 0.00 W/m2
22:09 55.0 °F 45.0 °F 29.94 in SSE 7.0 mph 11.0 mph 69 % 0.00 in 0.00 W/m2
22:14 54.8 °F 44.8 °F 29.93 in SSE 10.0 mph 10.0 mph 69 % 0.00 in 0.00 W/m2
22:19 54.7 °F 44.7 °F 29.94 in SSE 2.0 mph 11.0 mph 69 % 0.00 in 0.00 W/m2
22:24 54.6 °F 44.7 °F 29.94 in SSE 5.0 mph 11.0 mph 69 % 0.00 in 0.00 W/m2
22:29 54.4 °F 44.5 °F 29.94 in SSE 8.0 mph 12.0 mph 69 % 0.00 in 0.00 W/m2
22:34 54.2 °F 44.3 °F 29.94 in SSE 7.0 mph 12.0 mph 69 % 0.00 in 0.00 W/m2
22:39 54.2 °F 44.3 °F 29.94 in SSE 8.0 mph 10.0 mph 69 % 0.00 in 0.00 W/m2
22:44 54.0 °F 44.1 °F 29.94 in SSE 5.0 mph 10.0 mph 69 % 0.00 in 0.00 W/m2
22:49 53.9 °F 44.0 °F 29.94 in SSE 7.0 mph 8.0 mph 69 % 0.00 in 0.00 W/m2
22:54 53.7 °F 44.2 °F 29.94 in SSE 7.0 mph 10.0 mph 70 % 0.00 in 0.00 W/m2
22:59 53.5 °F 43.6 °F 29.94 in SSE 8.0 mph 9.0 mph 69 % 0.00 in 0.00 W/m2
23:04 53.4 °F 43.5 °F 29.94 in SE 6.0 mph 10.0 mph 69 % 0.00 in 0.00 W/m2
23:09 53.3 °F 43.4 °F 29.95 in SE 1.0 mph 10.0 mph 69 % 0.00 in 0.00 W/m2
23:14 53.2 °F 43.3 °F 29.94 in SE 6.0 mph 9.0 mph 69 % 0.00 in 0.00 W/m2
23:19 53.0 °F 43.1 °F 29.94 in SE 5.0 mph 14.0 mph 69 % 0.00 in 0.00 W/m2
23:24 52.9 °F 43.0 °F 29.94 in SE 11.0 mph 11.0 mph 69 % 0.00 in 0.00 W/m2
23:29 52.8 °F 42.9 °F 29.95 in SE 5.0 mph 9.0 mph 69 % 0.00 in 0.00 W/m2
23:34 52.6 °F 42.7 °F 29.95 in SE 8.0 mph 13.0 mph 69 % 0.00 in 0.00 W/m2
23:39 52.5 °F 42.6 °F 29.95 in SE 5.0 mph 13.0 mph 69 % 0.00 in 0.00 W/m2
23:44 52.4 °F 42.9 °F 29.95 in SE 5.0 mph 11.0 mph 70 % 0.00 in 0.00 W/m2
23:50 52.3 °F 43.2 °F 29.95 in SE 2.0 mph 9.0 mph 71 % 0.00 in 0.00 W/m2
23:52 52.3 °F 43.2 °F 29.95 in SE 4.0 mph 7.0 mph 71 % 0.00 in 0.00 W/m2
23:57 52.2 °F 43.1 °F 29.95 in SE 2.0 mph 7.0 mph 71 % 0.00 in 0.00 W/m2
Juneau County Weather
Compliments of Weather Underground - 4.5 mb
 WU-history PHP script courtesy of   Juneau County Weather.
powered by Cumulus v1.9.3 (1059)
Ambient Weather VWS v14.00
Top Contact Website Map Copyright © 2007 - 2018 Foresthillweather.com Never base important decisions on this or any weather information obtained from the Internet